Terminal Aerodrome Forecast
Issued by NWS

Home | Current Version | Previous Version | Text Only | Print | Product List | Glossary On
Versions: 1 2 3 4 5 6 7 8 9 10 11 12 13 14 15 16 17
218
FTUS43 KUNR 231129
TAFGCC
TAF
KGCC 231129Z 2312/2412 VRB06KT P6SM BKN070
     FM232100 33010KT P6SM BKN015
     FM240300 36012KT 2SM -SN OVC008=

USA.gov is the U.S. government's official web portal to all federal, state and local government web resources and services.